La Villa, Texas
Current Conditions -  °F | °C
As of 2:35 PM on Tuesday 21 Oct 2014 (Local Time) from KT65 Reporting Station
Moderate Rain Moderate Rain  
Wind Chill: 76°   Ceiling: 4300
Heat Index: 76°   Visibility: 4mi
Dew Point: 69°   Wind: 14mph
Humidity: 81%   Direction: 60°ENE
Pressure: 29.91"   Gusts: 21mph
Location:  26.3°N, 97.93°W
Report Text: KT65 211935Z AUTO 06012G18KT 4SM RA SCT026 BKN043 OVC050 24/21 A2991 RMK AO2 LTG DSNT SW T02430208
Loading
Personal Weather Stations






























Interactive Weather Map
Tropical Storm Tracking
New forecast layout! Learn more

10-Day Weather Forecast

Advertisements
Track Severe Weather on mobile